Time;durP1;ratioP1;P1;durP2;ratioP2;P2;SDS_P1;SDS_P2;PMS_P1;PMS_P2;Temp;Humidity;BMP_temperature;BMP_pressure;BME280_temperature;BME280_humidity;BME280_pressure;Samples;Min_cycle;Max_cycle;Signal;HPM_P1;HPM_P2
2022/07/29 00:00:45;;;;;;;14.55;13.07;;;17.70;99.90;;;18.55;100.00;97745.56;5210008;28;20380;-62
2022/07/29 00:03:18;;;;;;;15.93;14.63;;;17.80;99.90;;;18.57;100.00;97743.00;5213917;28;20386;-63
2022/07/29 00:05:51;;;;;;;16.73;15.32;;;17.80;99.90;;;18.50;100.00;97748.88;5214807;28;20225;-60
2022/07/29 00:08:25;;;;;;;15.32;14.02;;;17.80;99.90;;;18.42;100.00;97748.69;5215668;28;20226;-61
2022/07/29 00:10:59;;;;;;;14.57;13.40;;;17.70;99.90;;;18.43;100.00;97745.28;5214717;28;20247;-63
2022/07/29 00:13:32;;;;;;;15.18;14.02;;;17.60;99.90;;;18.52;100.00;97739.44;5216080;28;20308;-62
2022/07/29 00:16:05;;;;;;;16.48;15.23;;;17.80;99.90;;;18.61;100.00;97745.69;5216546;28;20225;-60
2022/07/29 00:18:39;;;;;;;17.67;16.17;;;17.90;99.90;;;18.68;100.00;97751.88;5217085;28;20197;-62
2022/07/29 00:21:12;;;;;;;16.60;15.30;;;18.00;99.90;;;18.69;100.00;97749.34;5213676;28;20251;-62
2022/07/29 00:23:45;;;;;;;18.17;16.58;;;18.00;99.90;;;18.73;100.00;97749.41;5214338;28;20256;-62
2022/07/29 00:26:19;;;;;;;16.00;14.90;;;17.90;99.90;;;18.69;100.00;97735.53;5215067;28;21695;-61
2022/07/29 00:28:53;;;;;;;15.52;14.25;;;17.80;99.90;;;18.73;100.00;97745.13;5219461;28;20731;-59
2022/07/29 00:31:46;;;;;;;15.95;14.65;;;17.90;99.90;;;18.70;100.00;97742.44;5217129;28;20315;-60
2022/07/29 00:37:09;;;;;;;15.60;14.30;;;17.80;99.90;;;18.59;100.00;97734.44;5199544;28;20314;-60
2022/07/29 00:39:42;;;;;;;15.75;14.45;;;17.70;99.90;;;18.67;100.00;97737.22;5223426;28;20720;-62
2022/07/29 00:42:17;;;;;;;15.75;14.45;;;17.90;99.90;;;18.71;100.00;97743.31;5214663;28;20212;-61
2022/07/29 00:44:50;;;;;;;15.55;14.30;;;17.90;99.90;;;18.71;100.00;97726.06;5221902;28;20234;-60
2022/07/29 00:47:23;;;;;;;16.98;15.50;;;18.00;99.90;;;18.76;100.00;97726.22;5217667;28;20202;-62
2022/07/29 00:49:56;;;;;;;16.33;15.05;;;18.00;99.90;;;18.74;100.00;97715.81;5222141;28;20461;-59
2022/07/29 00:52:29;;;;;;;15.90;14.50;;;17.90;99.90;;;18.72;100.00;97708.84;5215059;28;20249;-62
2022/07/29 00:55:04;;;;;;;15.35;14.20;;;17.80;99.90;;;18.71;100.00;97715.72;5218321;28;20201;-61
2022/07/29 00:57:44;;;;;;;14.55;13.35;;;17.80;99.90;;;18.67;100.00;97714.78;5222740;28;20223;-62
2022/07/29 01:00:21;;;;;;;13.93;12.93;;;17.80;99.90;;;18.64;100.00;97719.00;5221141;28;20355;-61
2022/07/29 01:02:54;;;;;;;15.68;14.27;;;17.80;99.90;;;18.62;100.00;97716.38;5216891;28;20736;-60
2022/07/29 01:05:29;;;;;;;14.50;13.38;;;17.80;99.90;;;18.60;100.00;97717.19;5222554;28;20653;-62
2022/07/29 01:08:23;;;;;;;15.30;13.95;;;17.80;99.90;;;18.61;100.00;97713.78;5224228;28;21296;-62
2022/07/29 01:10:57;;;;;;;14.82;13.52;;;17.70;99.90;;;18.63;100.00;97706.91;5223853;28;20614;-62
2022/07/29 01:13:33;;;;;;;12.95;11.90;;;17.80;99.90;;;18.70;100.00;97698.44;5220548;28;20327;-61
2022/07/29 01:16:14;;;;;;;13.98;12.77;;;17.80;99.90;;;18.61;100.00;97703.41;5213977;28;20193;-62
2022/07/29 01:18:50;;;;;;;13.40;12.30;;;17.60;99.90;;;18.50;100.00;97700.56;5220594;28;20254;-63
2022/07/29 01:21:45;;;;;;;12.85;11.85;;;17.50;99.90;;;18.54;100.00;97686.88;5216616;28;20713;-62
2022/07/29 01:25:02;;;;;;;13.85;12.82;;;17.60;99.90;;;18.56;100.00;97689.47;5222986;28;20222;-60
2022/07/29 01:27:53;;;;;;;14.98;13.82;;;17.80;99.90;;;18.63;100.00;97686.22;5220064;28;20332;-62
2022/07/29 01:30:30;;;;;;;15.35;14.15;;;17.80;99.90;;;18.69;100.00;97688.94;5217197;28;20200;-63
2022/07/29 01:33:48;;;;;;;17.05;15.65;;;17.80;99.90;;;18.71;100.00;97694.13;5211520;28;20255;-61
2022/07/29 01:36:15;;;;;;;15.60;14.30;;;17.90;99.90;;;18.72;100.00;97682.94;5219146;28;20200;-63
2022/07/29 01:39:07;;;;;;;15.38;14.18;;;17.80;99.90;;;18.73;100.00;97682.09;5219973;28;20248;-63
2022/07/29 01:41:50;;;;;;;15.95;14.65;;;17.80;99.90;;;18.73;100.00;97687.28;5225003;28;20245;-62
2022/07/29 01:44:32;;;;;;;14.65;13.45;;;17.90;99.90;;;18.75;100.00;97686.50;5218515;28;20260;-63
2022/07/29 01:47:21;;;;;;;14.35;13.25;;;17.90;99.90;;;18.76;100.00;97680.47;5218553;28;20229;-62
2022/07/29 01:49:57;;;;;;;13.98;12.82;;;17.90;99.90;;;18.76;100.00;97677.00;5212735;28;20239;-63
2022/07/29 01:52:35;;;;;;;13.77;12.77;;;17.90;99.90;;;18.78;100.00;97683.13;5219055;28;20295;-62
2022/07/29 01:55:15;;;;;;;13.65;12.60;;;17.90;99.90;;;18.82;100.00;97684.91;5218862;28;20649;-62
2022/07/29 01:57:49;;;;;;;13.80;12.60;;;18.00;99.90;;;18.83;100.00;97690.13;5224504;28;20254;-62
2022/07/29 02:00:24;;;;;;;11.40;10.52;;;18.00;99.90;;;18.80;100.00;97686.59;5215529;28;22719;-62
2022/07/29 02:03:02;;;;;;;10.70;10.00;;;17.90;99.90;;;18.71;100.00;97686.34;5212611;28;20224;-62
2022/07/29 02:05:36;;;;;;;10.70;9.90;;;17.70;99.90;;;18.63;100.00;97688.78;5218049;28;20205;-62
2022/07/29 02:08:10;;;;;;;11.38;10.57;;;17.60;99.90;;;18.60;100.00;97691.28;5217021;28;20197;-63
2022/07/29 02:10:44;;;;;;;12.07;11.20;;;17.60;99.90;;;18.59;100.00;97685.25;5222489;28;20201;-62
2022/07/29 02:13:19;;;;;;;12.68;11.88;;;17.70;99.90;;;18.63;100.00;97686.22;5218902;28;20244;-62
2022/07/29 02:15:54;;;;;;;12.55;11.57;;;17.70;99.90;;;18.62;100.00;97684.44;5215081;28;20243;-61
2022/07/29 02:18:31;;;;;;;14.48;13.27;;;17.70;99.90;;;18.68;100.00;97688.06;5218062;28;20683;-62
2022/07/29 02:21:05;;;;;;;12.55;11.65;;;17.80;99.90;;;18.62;100.00;97679.25;5225409;28;20208;-62
2022/07/29 02:23:48;;;;;;;14.48;13.38;;;17.70;99.90;;;18.54;100.00;97688.56;5220931;28;20201;-62
2022/07/29 02:26:25;;;;;;;13.98;12.90;;;17.70;99.90;;;18.53;100.00;97689.41;5221864;28;20216;-62
2022/07/29 02:29:00;;;;;;;14.45;13.35;;;17.70;99.90;;;18.54;100.00;97691.16;5220730;28;20224;-62
2022/07/29 02:31:35;;;;;;;14.93;13.68;;;17.60;99.90;;;18.52;100.00;97693.72;5211859;28;20213;-62
2022/07/29 02:34:11;;;;;;;14.98;13.80;;;17.60;99.90;;;18.53;100.00;97694.59;5213639;28;20204;-62
2022/07/29 02:36:46;;;;;;;14.55;13.35;;;17.70;99.90;;;18.57;100.00;97686.03;5219790;28;20211;-62
2022/07/29 02:39:22;;;;;;;14.00;12.80;;;17.70;99.90;;;18.50;100.00;97690.22;5219322;28;20295;-60
2022/07/29 02:42:02;;;;;;;16.52;15.10;;;17.60;99.90;;;18.44;100.00;97690.94;5215767;28;20303;-62
2022/07/29 02:44:36;;;;;;;14.30;13.15;;;17.60;99.90;;;18.39;100.00;97695.13;5220632;28;20243;-62
2022/07/29 02:47:18;;;;;;;14.00;13.00;;;17.60;99.90;;;18.30;100.00;97692.34;5218830;28;20202;-61
2022/07/29 02:50:01;;;;;;;14.45;13.35;;;17.40;99.90;;;18.26;100.00;97695.69;5223058;28;20716;-62
2022/07/29 02:52:40;;;;;;;14.45;13.30;;;17.40;99.90;;;18.18;100.00;97699.81;5219043;28;20224;-62
2022/07/29 02:55:20;;;;;;;14.45;13.25;;;17.30;99.90;;;18.18;100.00;97692.91;5218156;28;20287;-62
2022/07/29 02:58:01;;;;;;;12.88;11.80;;;17.30;99.90;;;18.19;100.00;97688.63;5217711;28;20291;-62
2022/07/29 03:00:39;;;;;;;12.15;11.25;;;17.30;99.90;;;18.19;100.00;97688.63;5218835;28;20249;-62
2022/07/29 03:03:16;;;;;;;13.68;12.57;;;17.30;99.90;;;18.21;100.00;97690.41;5217721;28;20642;-61
2022/07/29 03:05:53;;;;;;;12.73;11.82;;;17.40;99.90;;;18.23;100.00;97691.31;5221018;28;20700;-61
2022/07/29 03:08:28;;;;;;;13.93;12.82;;;17.40;99.90;;;18.19;100.00;97691.19;5219458;28;20247;-62
2022/07/29 03:11:02;;;;;;;13.20;12.20;;;17.30;99.90;;;18.12;100.00;97687.59;5216676;28;20201;-59
2022/07/29 03:13:36;;;;;;;13.52;12.52;;;17.20;99.90;;;18.12;100.00;97692.78;5215826;28;20252;-59
2022/07/29 03:16:11;;;;;;;17.25;15.77;;;17.30;99.90;;;18.07;100.00;97684.00;5220607;28;20270;-62
2022/07/29 03:18:44;;;;;;;14.77;13.48;;;17.20;99.90;;;18.13;100.00;97691.06;5221366;28;20227;-59
2022/07/29 03:21:19;;;;;;;16.00;14.65;;;17.30;99.90;;;18.09;100.00;97692.69;5218345;28;20252;-61
2022/07/29 03:23:52;;;;;;;15.52;14.05;;;17.20;99.90;;;18.00;100.00;97683.00;5219975;28;20225;-59
2022/07/29 03:26:25;;;;;;;16.38;14.90;;;17.20;99.90;;;18.10;100.00;97683.22;5214004;28;20233;-59
2022/07/29 03:28:58;;;;;;;13.93;12.73;;;17.30;99.90;;;18.16;100.00;97683.38;5218142;28;20225;-59
2022/07/29 03:31:31;;;;;;;15.77;14.38;;;17.40;99.90;;;18.28;100.00;97678.47;5213209;28;21794;-59
2022/07/29 03:34:05;;;;;;;14.85;13.65;;;17.40;99.90;;;18.27;100.00;97681.91;5218672;28;20660;-60
2022/07/29 03:36:40;;;;;;;17.25;15.20;;;17.30;99.90;;;18.19;100.00;97684.31;5212951;28;20293;-59
2022/07/29 03:39:22;;;;;;;14.52;13.15;;;17.20;99.90;;;18.01;100.00;97679.56;5214894;28;20308;-62
2022/07/29 03:41:57;;;;;;;14.30;12.88;;;17.00;99.90;;;17.98;100.00;97688.97;5209407;28;20253;-60
2022/07/29 03:44:32;;;;;;;13.98;12.98;;;17.00;99.90;;;17.98;100.00;97684.66;5217465;28;20604;-60
2022/07/29 03:47:09;;;;;;;14.38;13.38;;;17.00;99.90;;;18.04;100.00;97680.50;5223816;28;20221;-59
2022/07/29 03:49:43;;;;;;;13.15;12.15;;;17.10;99.90;;;18.07;100.00;97686.59;5219823;28;20217;-62
2022/07/29 03:52:18;;;;;;;13.98;12.90;;;17.20;99.90;;;18.03;100.00;97682.22;5215350;28;20323;-61
2022/07/29 03:54:51;;;;;;;13.38;12.35;;;17.10;99.90;;;18.06;100.00;97686.59;5217157;28;20253;-59
2022/07/29 03:57:28;;;;;;;15.63;14.38;;;17.10;99.90;;;18.09;100.00;97691.81;5211707;28;20241;-61
2022/07/29 04:00:05;;;;;;;14.85;13.65;;;17.30;99.90;;;18.18;100.00;97689.47;5214522;28;20229;-62
2022/07/29 04:02:39;;;;;;;15.13;13.93;;;17.30;99.90;;;18.21;100.00;97689.53;5217627;28;20639;-59
2022/07/29 04:05:13;;;;;;;16.58;13.63;;;17.30;99.90;;;18.17;100.00;97687.69;5217748;28;20197;-61
2022/07/29 04:07:49;;;;;;;14.13;13.02;;;17.20;99.90;;;18.09;100.00;97695.28;5216398;28;20731;-59
2022/07/29 04:10:22;;;;;;;15.32;14.02;;;17.10;99.90;;;18.11;100.00;97695.31;5214081;28;20240;-61
2022/07/29 04:13:03;;;;;;;19.95;14.57;;;17.20;99.90;;;18.08;100.00;97690.94;5218956;28;20218;-59
2022/07/29 04:15:36;;;;;;;16.35;14.63;;;17.20;99.90;;;18.05;100.00;97705.50;5222301;28;20225;-62
2022/07/29 04:18:10;;;;;;;15.10;13.90;;;17.10;99.90;;;18.00;100.00;97703.69;5215943;28;20209;-61
2022/07/29 04:20:43;;;;;;;16.08;14.88;;;17.10;99.90;;;18.02;100.00;97707.16;5218074;28;20197;-60
2022/07/29 04:23:17;;;;;;;15.93;14.60;;;17.10;99.90;;;18.04;100.00;97703.75;5215991;28;20334;-61
2022/07/29 04:25:50;;;;;;;15.63;14.32;;;17.10;99.90;;;18.04;100.00;97714.13;5220574;28;20240;-57
2022/07/29 04:28:23;;;;;;;16.83;15.13;;;17.10;99.90;;;18.01;100.00;97718.38;5219511;28;20300;-60
2022/07/29 04:30:57;;;;;;;17.65;16.05;;;17.10;99.90;;;17.93;100.00;97721.59;5213982;28;20236;-58
2022/07/29 04:33:30;;;;;;;17.75;16.10;;;17.10;99.90;;;18.00;100.00;97726.97;5216628;28;20583;-61
2022/07/29 04:36:03;;;;;;;18.50;16.73;;;17.20;99.90;;;18.08;100.00;97721.09;5224704;28;20746;-58
2022/07/29 04:38:58;;;;;;;15.52;14.18;;;17.30;99.90;;;18.10;100.00;97729.78;5219642;28;20578;-61
2022/07/29 04:41:31;;;;;;;16.08;14.65;;;17.30;99.90;;;18.15;100.00;97728.19;5219378;28;20252;-59
2022/07/29 04:44:05;;;;;;;16.33;14.70;;;17.30;99.90;;;18.14;100.00;97732.50;5212982;28;20617;-59
2022/07/29 04:46:41;;;;;;;17.90;16.00;;;17.30;99.90;;;17.77;100.00;97740.97;5217007;28;20504;-61
2022/07/29 04:49:14;;;;;;;18.48;16.90;;;17.10;99.90;;;17.89;100.00;97736.16;5220142;28;20579;-59
2022/07/29 04:51:48;;;;;;;17.77;16.20;;;17.20;99.90;;;17.97;100.00;97745.00;5210789;28;20625;-59
2022/07/29 04:54:23;;;;;;;18.60;17.00;;;17.20;99.90;;;18.06;100.00;97743.50;5216651;28;20205;-59
2022/07/29 04:57:00;;;;;;;16.95;15.55;;;17.30;99.90;;;18.17;100.00;97753.28;5219950;28;20641;-60
2022/07/29 04:59:34;;;;;;;16.60;15.02;;;17.40;99.90;;;18.26;100.00;97752.63;5223599;28;20576;-61
2022/07/29 05:02:07;;;;;;;17.42;15.95;;;17.50;99.90;;;18.27;100.00;97741.44;5216154;28;20282;-62
2022/07/29 05:04:40;;;;;;;15.48;14.18;;;17.40;99.90;;;18.20;100.00;97739.53;5216033;28;20640;-61
2022/07/29 05:07:14;;;;;;;15.18;13.75;;;17.30;99.90;;;18.15;100.00;97733.38;5226045;28;20237;-61
2022/07/29 05:09:48;;;;;;;14.98;13.45;;;17.30;99.90;;;18.24;100.00;97729.28;5216994;28;20237;-61
2022/07/29 05:12:22;;;;;;;13.55;12.48;;;17.40;99.90;;;18.31;100.00;97738.06;5218122;28;20236;-60
2022/07/29 05:14:55;;;;;;;13.98;12.88;;;17.50;99.90;;;18.32;100.00;97737.25;5217720;28;20201;-62
2022/07/29 05:17:28;;;;;;;13.68;12.32;;;17.50;99.90;;;18.27;100.00;97738.84;5215407;28;20240;-61
2022/07/29 05:20:01;;;;;;;25.33;11.57;;;17.40;99.90;;;18.20;100.00;97734.38;5209338;28;20233;-61
2022/07/29 05:22:34;;;;;;;10.45;9.75;;;17.40;99.90;;;18.16;100.00;97730.81;5216862;28;20225;-61
2022/07/29 05:25:09;;;;;;;12.07;10.45;;;17.20;99.90;;;18.06;100.00;97733.13;5214168;28;20279;-61
2022/07/29 05:27:42;;;;;;;11.07;10.18;;;17.20;99.90;;;18.13;100.00;97741.06;5208735;28;20228;-61
2022/07/29 05:30:15;;;;;;;10.65;9.95;;;17.20;99.90;;;18.22;100.00;97738.72;5209627;28;20704;-62
2022/07/29 05:32:49;;;;;;;10.43;9.70;;;17.40;99.90;;;18.22;100.00;97741.28;5215014;28;20272;-61
2022/07/29 05:35:22;;;;;;;15.43;13.93;;;17.40;99.90;;;18.35;100.00;97746.81;5212951;28;20279;-61
2022/07/29 05:37:55;;;;;;;14.98;13.63;;;17.50;99.90;;;18.23;100.00;97748.25;5218139;28;20622;-61
2022/07/29 05:40:30;;;;;;;14.30;13.20;;;17.40;99.90;;;18.25;100.00;97743.09;5214238;28;20244;-62
2022/07/29 05:43:03;;;;;;;14.80;13.70;;;17.40;99.90;;;18.37;100.00;97752.88;5216499;28;20251;-61
2022/07/29 05:45:36;;;;;;;13.18;11.60;;;17.50;99.90;;;18.37;100.00;97750.28;5218150;28;20201;-60
2022/07/29 05:48:22;;;;;;;11.88;10.88;;;17.50;99.90;;;18.51;100.00;97753.22;5217794;28;20250;-61
2022/07/29 05:50:56;;;;;;;10.00;9.30;;;17.60;99.90;;;18.67;100.00;97750.16;5218151;28;20233;-61
2022/07/29 05:53:29;;;;;;;9.73;8.93;;;17.80;99.90;;;18.80;100.00;97752.22;5218430;28;20608;-61
2022/07/29 05:56:07;;;;;;;8.00;7.50;;;18.10;99.90;;;19.23;100.00;97753.19;5216927;28;20233;-61
2022/07/29 05:58:40;;;;;;;9.30;8.70;;;18.30;99.90;;;19.30;100.00;97757.63;5213488;28;20647;-62
2022/07/29 06:01:13;;;;;;;9.20;8.45;;;18.40;99.90;;;19.47;100.00;97760.56;5223109;28;20228;-61
2022/07/29 06:03:46;;;;;;;9.95;9.25;;;18.50;99.90;;;19.57;100.00;97753.84;5215970;28;20228;-61
2022/07/29 06:06:19;;;;;;;8.10;7.50;;;18.50;99.90;;;19.70;100.00;97755.88;5216106;28;20227;-61
2022/07/29 06:08:52;;;;;;;8.07;7.57;;;18.70;99.90;;;19.72;100.00;97763.69;5217806;28;20658;-60
2022/07/29 06:11:27;;;;;;;8.05;7.55;;;18.70;99.90;;;19.91;100.00;97765.78;5218565;28;20679;-61
2022/07/29 06:14:00;;;;;;;8.48;7.88;;;18.90;99.90;;;20.17;97.96;97767.97;5224295;28;20236;-61
2022/07/29 06:16:33;;;;;;;7.68;7.03;;;19.10;99.90;;;20.59;94.81;97767.00;5216695;28;20215;-61
2022/07/29 06:19:06;;;;;;;7.72;7.07;;;19.50;99.90;;;21.35;93.78;97762.03;5223483;28;20204;-61
2022/07/29 06:21:43;;;;;;;6.90;6.40;;;20.10;99.90;;;22.05;86.47;97757.63;5215283;28;20715;-60
2022/07/29 06:24:17;;;;;;;7.15;6.63;;;20.60;99.90;;;22.37;84.80;97759.69;5222268;28;20646;-61
2022/07/29 06:26:52;;;;;;;6.47;6.07;;;20.90;99.90;;;22.64;82.80;97761.69;5215252;28;20209;-61
2022/07/29 06:29:25;;;;;;;7.15;6.47;;;21.10;99.90;;;22.49;81.56;97770.25;5218754;28;20285;-61
2022/07/29 06:31:59;;;;;;;6.22;5.82;;;21.10;99.90;;;22.72;79.43;97772.16;5212257;28;20649;-60
2022/07/29 06:34:32;;;;;;;6.75;6.25;;;21.20;99.90;;;22.60;79.66;97772.91;5219508;28;20233;-61
2022/07/29 06:37:08;;;;;;;6.82;6.32;;;21.10;99.90;;;22.19;80.82;97769.97;5215114;28;20296;-60
2022/07/29 06:39:47;;;;;;;6.93;6.53;;;20.70;99.90;;;22.03;82.37;97769.78;5216909;28;20205;-60
2022/07/29 06:42:22;;;;;;;7.75;7.15;;;20.60;99.90;;;21.89;84.45;97773.97;5219957;28;20697;-59
2022/07/29 06:44:55;;;;;;;8.15;7.40;;;20.60;99.90;;;21.91;84.05;97766.16;5221118;28;20539;-61
2022/07/29 06:47:28;;;;;;;8.60;7.75;;;20.70;99.90;;;22.27;83.36;97757.91;5228669;28;20221;-59
2022/07/29 06:50:01;;;;;;;7.80;7.15;;;21.00;99.90;;;22.87;81.32;97766.19;5219794;28;20284;-60
2022/07/29 06:52:40;;;;;;;8.35;7.65;;;21.50;99.90;;;22.99;78.04;97765.44;5212389;28;20286;-60
2022/07/29 06:55:13;;;;;;;8.02;7.43;;;21.60;99.90;;;23.03;79.54;97767.19;5212661;28;20594;-59
2022/07/29 06:57:58;;;;;;;7.63;7.03;;;21.70;99.90;;;23.39;77.88;97775.22;5223412;28;20731;-58
2022/07/29 07:00:32;;;;;;;8.30;7.50;;;22.20;99.90;;;23.66;75.98;97776.19;5220513;28;20264;-60
2022/07/29 07:03:23;;;;;;;7.95;7.25;;;22.30;99.90;;;24.13;74.28;97783.34;5212487;28;20260;-59
2022/07/29 07:05:58;;;;;;;8.23;7.38;;;22.50;99.90;;;24.14;74.48;97784.19;5223947;28;20233;-58
2022/07/29 07:08:32;;;;;;;7.50;6.80;;;22.70;99.90;;;24.67;73.59;97786.03;5219679;28;20859;-58
2022/07/29 07:11:29;;;;;;;7.22;6.53;;;23.30;99.90;;;25.02;68.25;97777.28;5221380;28;20284;-59
2022/07/29 07:14:04;;;;;;;6.93;6.40;;;23.60;99.90;;;25.34;67.42;97774.63;5215728;28;20290;-60
2022/07/29 07:16:37;;;;;;;7.88;7.15;;;23.70;99.90;;;25.71;66.38;97782.34;5218141;28;20197;-60
2022/07/29 07:19:19;;;;;;;6.57;6.07;;;24.10;99.90;;;25.82;65.58;97777.91;5219962;28;20580;-58
2022/07/29 07:21:52;;;;;;;6.47;5.97;;;24.10;99.90;;;25.95;63.18;97779.59;5222335;28;20270;-59
2022/07/29 07:24:27;;;;;;;6.30;5.78;;;24.10;99.90;;;25.87;62.46;97776.19;5221773;28;20216;-59
2022/07/29 07:27:00;;;;;;;5.85;5.32;;;24.10;99.90;;;25.82;63.88;97773.56;5211790;28;20236;-58
2022/07/29 07:29:35;;;;;;;6.22;5.72;;;24.20;99.90;;;26.19;63.21;97776.00;5214070;28;20272;-59
2022/07/29 07:32:08;;;;;;;6.05;5.55;;;24.50;99.90;;;26.65;60.90;97772.19;5223793;28;20263;-59
2022/07/29 07:34:41;;;;;;;5.57;5.18;;;24.90;99.90;;;26.81;61.13;97771.16;5219611;28;20288;-57
2022/07/29 07:37:33;;;;;;;5.93;5.53;;;25.20;99.90;;;27.20;59.00;97779.56;5213214;28;20251;-59
2022/07/29 07:40:26;;;;;;;6.40;5.80;;;25.50;99.90;;;27.27;57.75;97775.09;5214871;28;20677;-58
2022/07/29 07:42:59;;;;;;;5.65;5.20;;;25.40;99.90;;;27.62;57.29;97762.44;5220707;28;20307;-59
2022/07/29 07:45:34;;;;;;;5.32;4.82;;;25.50;99.90;;;27.27;56.88;97773.38;5212970;28;20228;-60
2022/07/29 07:48:09;;;;;;;4.95;4.60;;;25.50;99.90;;;27.18;57.81;97762.97;5214286;28;20595;-57
2022/07/29 07:50:43;;;;;;;5.00;4.65;;;25.20;99.90;;;26.66;59.04;97779.16;5220058;28;20254;-58
2022/07/29 07:53:16;;;;;;;4.78;4.38;;;24.70;99.90;;;26.76;60.44;97775.59;5225387;28;20259;-57
2022/07/29 07:55:49;;;;;;;5.22;4.82;;;24.70;99.90;;;27.16;60.39;97764.75;5215073;28;20229;-59
2022/07/29 07:58:43;;;;;;;4.72;4.32;;;25.20;99.90;;;27.97;55.00;97770.78;5217177;28;20676;-58
2022/07/29 08:01:19;;;;;;;4.60;4.20;;;25.50;99.90;;;28.27;53.13;97772.09;5220365;28;20222;-58
2022/07/29 08:03:52;;;;;;;4.90;4.30;;;25.90;99.90;;;28.25;53.07;97774.75;5215282;28;20256;-59
2022/07/29 08:06:25;;;;;;;5.18;4.72;;;26.00;99.90;;;27.92;53.67;97769.97;5215702;28;20736;-58
2022/07/29 08:08:58;;;;;;;4.70;4.30;;;25.80;99.90;;;27.92;55.57;97772.59;5217290;28;20231;-59
2022/07/29 08:11:52;;;;;;;4.32;3.80;;;25.90;99.90;;;27.72;55.71;97768.44;5218766;28;20243;-59
2022/07/29 08:14:25;;;;;;;3.78;3.45;;;25.70;99.90;;;27.65;53.49;97769.44;5215621;28;20284;-59
2022/07/29 08:17:00;;;;;;;3.65;3.30;;;25.90;99.90;;;27.52;52.49;97767.81;5216774;28;20562;-59
2022/07/29 08:19:33;;;;;;;3.28;3.00;;;26.20;98.70;;;27.81;50.77;97771.00;5214336;28;20200;-59
2022/07/29 08:22:06;;;;;;;3.42;3.22;;;26.40;97.40;;;28.21;50.01;97769.56;5212342;28;20216;-58
2022/07/29 08:24:52;;;;;;;3.40;3.20;;;26.80;97.20;;;28.47;49.76;97771.81;5214545;28;20678;-59
2022/07/29 08:27:28;;;;;;;3.50;3.30;;;27.10;96.20;;;28.38;49.98;97769.31;5215261;28;20298;-59
2022/07/29 08:30:17;;;;;;;3.28;3.08;;;26.80;96.70;;;28.22;50.63;97768.69;5213162;28;20601;-59
2022/07/29 08:32:52;;;;;;;4.32;4.03;;;26.60;97.10;;;28.17;51.38;97781.88;5209947;28;20297;-58
2022/07/29 08:35:28;;;;;;;4.05;3.75;;;26.60;97.90;;;28.13;52.48;97779.31;5210073;28;20208;-58
2022/07/29 08:38:07;;;;;;;3.75;3.45;;;26.50;98.20;;;28.07;51.24;97788.16;5212102;28;20200;-58
2022/07/29 08:40:40;;;;;;;4.03;3.72;;;26.30;97.40;;;28.14;51.32;97779.31;5213525;28;20248;-59
2022/07/29 08:43:14;;;;;;;3.95;3.65;;;26.50;97.30;;;28.44;50.65;97777.13;5215785;28;20282;-59
2022/07/29 08:45:49;;;;;;;3.97;3.70;;;26.90;96.60;;;28.40;51.04;97781.53;5214393;28;20252;-58
2022/07/29 08:48:25;;;;;;;3.95;3.65;;;27.00;96.70;;;28.06;51.25;97782.03;5216728;28;20208;-59
2022/07/29 08:50:59;;;;;;;4.68;4.30;;;26.70;96.50;;;27.97;51.57;97783.94;5216976;28;20281;-59
2022/07/29 08:53:33;;;;;;;4.07;3.78;;;26.50;97.10;;;28.11;51.77;97779.34;5219560;28;20636;-60
2022/07/29 08:56:06;;;;;;;4.07;3.78;;;26.70;97.00;;;28.38;51.28;97783.31;5218384;28;20258;-58
2022/07/29 08:58:40;;;;;;;4.35;4.05;;;27.00;96.60;;;28.58;50.82;97780.41;5216040;28;20291;-59
2022/07/29 09:01:22;;;;;;;4.28;3.97;;;27.30;96.70;;;28.86;49.18;97779.97;5213605;28;20215;-59
2022/07/29 09:04:13;;;;;;;4.15;3.85;;;27.60;95.60;;;28.92;48.76;97769.31;5216072;28;20524;-58
2022/07/29 09:06:49;;;;;;;3.92;3.63;;;27.80;94.80;;;29.04;49.11;97773.53;5215270;28;20295;-59
2022/07/29 09:09:23;;;;;;;4.50;4.20;;;27.80;94.80;;;29.08;48.48;97773.44;5210689;28;20201;-59
2022/07/29 09:11:56;;;;;;;5.07;4.68;;;27.90;94.50;;;29.00;48.25;97767.41;5214521;28;20228;-59
2022/07/29 09:14:30;;;;;;;4.80;4.40;;;27.70;94.40;;;28.66;49.77;97773.25;5214539;28;20208;-59
2022/07/29 09:17:03;;;;;;;4.45;4.10;;;27.60;95.00;;;29.00;48.61;97763.94;5210574;28;20670;-59
2022/07/29 09:19:38;;;;;;;4.63;4.22;;;27.70;94.60;;;29.18;49.33;97761.84;5207504;28;20562;-59
2022/07/29 09:22:30;;;;;;;4.65;4.25;;;28.00;95.10;;;29.19;48.51;97765.38;5212738;28;20224;-58
2022/07/29 09:25:03;;;;;;;4.55;4.15;;;28.40;93.70;;;29.24;48.91;97760.00;5209172;28;20282;-59
2022/07/29 09:27:36;;;;;;;4.95;4.30;;;28.10;94.40;;;29.09;48.73;97762.00;5213134;28;20297;-59
2022/07/29 09:30:15;;;;;;;5.05;4.45;;;28.00;94.00;;;28.91;49.89;97768.47;5214391;28;20224;-59
2022/07/29 09:33:04;;;;;;;4.72;4.43;;;27.90;94.90;;;28.80;50.20;97780.06;5216012;28;20641;-59
2022/07/29 09:35:39;;;;;;;4.80;4.45;;;27.90;94.60;;;29.05;49.25;97770.03;5217444;28;20201;-59
2022/07/29 09:38:13;;;;;;;4.30;4.07;;;28.00;94.20;;;29.32;48.51;97773.88;5219024;28;20660;-59
2022/07/29 09:40:58;;;;;;;4.85;4.45;;;28.30;93.60;;;29.52;48.12;97771.72;5212134;28;20243;-60
2022/07/29 09:43:40;;;;;;;5.15;4.75;;;28.70;93.00;;;29.53;47.95;97773.47;5217387;28;20291;-60
2022/07/29 09:46:14;;;;;;;4.70;4.30;;;28.70;93.00;;;29.45;47.75;97780.66;5219023;28;20975;-59
2022/07/29 09:49:07;;;;;;;4.63;4.22;;;28.40;92.60;;;29.24;48.46;97765.25;5216040;28;20661;-59
2022/07/29 09:51:42;;;;;;;5.90;4.53;;;28.20;93.30;;;29.06;48.52;97772.59;5214824;28;20240;-59
2022/07/29 09:54:26;;;;;;;4.80;4.43;;;28.00;93.50;;;29.21;48.21;97765.31;5218539;28;20652;-59
2022/07/29 09:56:59;;;;;;;4.85;4.40;;;28.30;92.90;;;29.23;48.31;97761.75;5218916;28;20231;-59
2022/07/29 09:59:33;;;;;;;4.22;3.92;;;28.30;93.20;;;29.18;49.04;97756.56;5217423;28;20291;-59
2022/07/29 10:02:13;;;;;;;5.80;4.90;;;28.30;93.80;;;29.07;49.31;97755.91;5216334;28;20648;-60
2022/07/29 10:04:54;;;;;;;5.07;4.68;;;28.20;93.50;;;29.36;48.11;97749.22;5211219;28;20556;-61
2022/07/29 10:07:45;;;;;;;5.00;4.60;;;28.40;93.30;;;29.51;48.45;97748.91;5214226;28;20228;-61
2022/07/29 10:10:27;;;;;;;5.07;4.68;;;28.60;93.30;;;29.63;46.53;97742.56;5208601;28;20211;-59
2022/07/29 10:13:03;;;;;;;4.82;4.43;;;28.90;91.60;;;29.55;46.46;97744.44;5218641;28;20289;-59
2022/07/29 10:15:45;;;;;;;4.78;4.40;;;28.70;91.40;;;29.54;47.59;97740.09;5222211;28;20632;-58
2022/07/29 10:18:19;;;;;;;6.50;4.88;;;28.60;92.50;;;29.40;48.90;97735.09;5212418;28;20204;-60
2022/07/29 10:20:53;;;;;;;5.18;4.78;;;28.70;92.60;;;29.61;47.06;97745.19;5214584;28;20209;-60
2022/07/29 10:23:29;;;;;;;5.05;4.65;;;28.80;91.90;;;29.39;48.05;97738.63;5211010;28;20240;-61
2022/07/29 10:26:19;;;;;;;4.90;4.60;;;28.70;92.20;;;29.58;45.66;97739.97;5216108;28;20852;-63
2022/07/29 10:28:52;;;;;;;5.10;4.63;;;28.80;90.80;;;29.59;45.74;97741.72;5207463;28;20724;-63
2022/07/29 10:31:32;;;;;;;4.72;4.40;;;28.70;90.70;;;29.58;45.70;97737.34;5213857;28;20673;-63
2022/07/29 10:34:17;;;;;;;5.28;4.82;;;28.60;91.10;;;29.62;45.40;97731.16;5217350;28;20257;-64
2022/07/29 10:37:04;;;;;;;5.18;4.78;;;28.60;90.90;;;29.56;45.83;97733.88;5222107;28;20253;-63
2022/07/29 10:39:55;;;;;;;5.60;5.07;;;28.50;91.00;;;29.72;45.20;97731.81;5219318;28;20219;-63
2022/07/29 10:42:31;;;;;;;5.32;4.82;;;28.70;90.70;;;29.93;45.38;97730.47;5222644;28;20216;-63
2022/07/29 10:45:25;;;;;;;5.38;4.97;;;29.00;90.60;;;30.16;43.81;97727.31;5214766;28;20227;-63
2022/07/29 10:48:06;;;;;;;5.38;4.95;;;29.20;89.40;;;30.46;43.55;97720.47;5216114;28;20200;-62
2022/07/29 10:50:58;;;;;;;5.38;4.88;;;29.50;89.30;;;30.45;43.74;97720.50;5212551;28;20200;-63